sensor_id;sensor_type;location;lat;lon;timestamp;pressure;altitude;pressure_sealevel;temperature;humidity
77161;BME280;66135;0.000;0.000;2023-04-24T00:00:30;99892.09;;;19.43;64.15
77161;BME280;66135;0.000;0.000;2023-04-24T00:02:56;99892.28;;;19.42;64.18
77161;BME280;66135;0.000;0.000;2023-04-24T00:05:23;99893.31;;;19.41;64.39
77161;BME280;66135;0.000;0.000;2023-04-24T00:07:48;99898.53;;;19.42;64.14
77161;BME280;66135;0.000;0.000;2023-04-24T00:10:14;99905.88;;;19.42;64.17
77161;BME280;66135;0.000;0.000;2023-04-24T00:12:39;99893.31;;;19.41;64.11
77161;BME280;66135;0.000;0.000;2023-04-24T00:15:05;99905.03;;;19.41;64.26
77161;BME280;66135;0.000;0.000;2023-04-24T00:17:33;99906.91;;;19.41;64.10
77161;BME280;66135;0.000;0.000;2023-04-24T00:19:59;99913.59;;;19.38;64.29
77161;BME280;66135;0.000;0.000;2023-04-24T00:22:28;99912.53;;;19.39;64.35
77161;BME280;66135;0.000;0.000;2023-04-24T00:24:54;99913.59;;;19.38;64.04
77161;BME280;66135;0.000;0.000;2023-04-24T00:27:19;99900.84;;;19.39;64.12
77161;BME280;66135;0.000;0.000;2023-04-24T00:29:45;99905.44;;;19.38;64.08
77161;BME280;66135;0.000;0.000;2023-04-24T00:32:10;99913.59;;;19.38;63.88
77161;BME280;66135;0.000;0.000;2023-04-24T00:34:36;99916.31;;;19.38;64.00
77161;BME280;66135;0.000;0.000;2023-04-24T00:37:01;99913.81;;;19.37;64.21
77161;BME280;66135;0.000;0.000;2023-04-24T00:39:27;99912.13;;;19.36;64.19
77161;BME280;66135;0.000;0.000;2023-04-24T00:41:53;99917.56;;;19.36;64.01
77161;BME280;66135;0.000;0.000;2023-04-24T00:44:18;99916.53;;;19.37;64.03
77161;BME280;66135;0.000;0.000;2023-04-24T00:46:44;99919.25;;;19.37;63.88
77161;BME280;66135;0.000;0.000;2023-04-24T00:49:11;99920.25;;;19.36;64.04
77161;BME280;66135;0.000;0.000;2023-04-24T00:51:37;99913.16;;;19.35;63.92
77161;BME280;66135;0.000;0.000;2023-04-24T00:54:02;99910.47;;;19.35;63.94
77161;BME280;66135;0.000;0.000;2023-04-24T00:56:28;99916.09;;;19.33;63.94
77161;BME280;66135;0.000;0.000;2023-04-24T00:58:54;99917.97;;;19.33;63.95
77161;BME280;66135;0.000;0.000;2023-04-24T01:01:20;99920.03;;;19.31;64.13
77161;BME280;66135;0.000;0.000;2023-04-24T01:03:46;99923.59;;;19.31;63.95
77161;BME280;66135;0.000;0.000;2023-04-24T01:06:12;99914.78;;;19.29;64.11
77161;BME280;66135;0.000;0.000;2023-04-24T01:08:38;99917.50;;;19.29;63.86
77161;BME280;66135;0.000;0.000;2023-04-24T01:11:05;99919.38;;;19.29;63.87
77161;BME280;66135;0.000;0.000;2023-04-24T01:13:31;99912.91;;;19.30;63.91
77161;BME280;66135;0.000;0.000;2023-04-24T01:15:57;99907.69;;;19.28;64.01
77161;BME280;66135;0.000;0.000;2023-04-24T01:18:27;99911.44;;;19.27;63.83
77161;BME280;66135;0.000;0.000;2023-04-24T01:21:04;99912.50;;;19.26;63.84
77161;BME280;66135;0.000;0.000;2023-04-24T01:23:29;99916.22;;;19.25;63.90
77161;BME280;66135;0.000;0.000;2023-04-24T01:25:55;99914.38;;;19.26;63.75
77161;BME280;66135;0.000;0.000;2023-04-24T01:28:21;99916.03;;;19.27;64.02
77161;BME280;66135;0.000;0.000;2023-04-24T01:30:47;99904.56;;;19.25;64.08
77161;BME280;66135;0.000;0.000;2023-04-24T01:33:12;99912.69;;;19.25;63.82
77161;BME280;66135;0.000;0.000;2023-04-24T01:35:38;99913.94;;;19.22;63.88
77161;BME280;66135;0.000;0.000;2023-04-24T01:38:04;99909.72;;;19.20;63.77
77161;BME280;66135;0.000;0.000;2023-04-24T01:40:30;99918.53;;;19.22;63.73
77161;BME280;66135;0.000;0.000;2023-04-24T01:42:57;99909.72;;;19.20;63.77
77161;BME280;66135;0.000;0.000;2023-04-24T01:45:22;99915.38;;;19.18;63.86
77161;BME280;66135;0.000;0.000;2023-04-24T01:47:49;99910.59;;;19.20;64.04
77161;BME280;66135;0.000;0.000;2023-04-24T01:50:15;99915.38;;;19.18;63.80
77161;BME280;66135;0.000;0.000;2023-04-24T01:52:40;99908.06;;;19.19;63.70
77161;BME280;66135;0.000;0.000;2023-04-24T01:55:06;99912.44;;;19.20;63.59
77161;BME280;66135;0.000;0.000;2023-04-24T01:57:33;99917.88;;;19.20;63.70
77161;BME280;66135;0.000;0.000;2023-04-24T01:59:58;99917.88;;;19.20;63.67
77161;BME280;66135;0.000;0.000;2023-04-24T02:02:24;99918.28;;;19.17;63.77
77161;BME280;66135;0.000;0.000;2023-04-24T02:04:55;99915.59;;;19.17;63.65
77161;BME280;66135;0.000;0.000;2023-04-24T02:07:20;99913.72;;;19.17;63.58
77161;BME280;66135;0.000;0.000;2023-04-24T02:09:46;99915.59;;;19.17;63.62
77161;BME280;66135;0.000;0.000;2023-04-24T02:12:11;99915.78;;;19.15;63.70
77161;BME280;66135;0.000;0.000;2023-04-24T02:14:37;99916.63;;;19.16;63.50
77161;BME280;66135;0.000;0.000;2023-04-24T02:17:03;99916.84;;;19.14;63.76
77161;BME280;66135;0.000;0.000;2023-04-24T02:19:30;99920.59;;;19.13;63.54
77161;BME280;66135;0.000;0.000;2023-04-24T02:21:55;99924.34;;;19.12;63.35
77161;BME280;66135;0.000;0.000;2023-04-24T02:24:20;99926.22;;;19.12;63.62
77161;BME280;66135;0.000;0.000;2023-04-24T02:26:46;99927.88;;;19.13;63.66
77161;BME280;66135;0.000;0.000;2023-04-24T02:29:11;99927.88;;;19.13;63.50
77161;BME280;66135;0.000;0.000;2023-04-24T02:31:37;99924.56;;;19.11;63.71
77161;BME280;66135;0.000;0.000;2023-04-24T02:34:02;99924.56;;;19.11;63.80
77161;BME280;66135;0.000;0.000;2023-04-24T02:36:28;99929.34;;;19.08;63.67
77161;BME280;66135;0.000;0.000;2023-04-24T02:38:53;99924.13;;;19.07;63.64
77161;BME280;66135;0.000;0.000;2023-04-24T02:41:19;99915.13;;;19.06;63.64
77161;BME280;66135;0.000;0.000;2023-04-24T02:43:45;99918.69;;;19.07;63.72
77161;BME280;66135;0.000;0.000;2023-04-24T02:46:10;99918.91;;;19.05;63.64
77161;BME280;66135;0.000;0.000;2023-04-24T02:48:35;99911.56;;;19.06;63.44
77161;BME280;66135;0.000;0.000;2023-04-24T02:51:01;99901.56;;;19.06;63.42
77161;BME280;66135;0.000;0.000;2023-04-24T02:53:26;99907.19;;;19.05;63.61
77161;BME280;66135;0.000;0.000;2023-04-24T02:55:52;99905.34;;;19.05;63.61
77161;BME280;66135;0.000;0.000;2023-04-24T02:58:17;99910.13;;;19.03;63.47
77161;BME280;66135;0.000;0.000;2023-04-24T03:00:45;99916.56;;;19.02;63.47
77161;BME280;66135;0.000;0.000;2023-04-24T03:03:11;99913.84;;;19.02;63.62
77161;BME280;66135;0.000;0.000;2023-04-24T03:05:36;99905.72;;;19.02;63.41
77161;BME280;66135;0.000;0.000;2023-04-24T03:08:01;99910.72;;;18.99;63.55
77161;BME280;66135;0.000;0.000;2023-04-24T03:10:27;99909.91;;;18.98;63.63
77161;BME280;66135;0.000;0.000;2023-04-24T03:12:52;99912.41;;;19.00;63.61
77161;BME280;66135;0.000;0.000;2023-04-24T03:15:18;99911.56;;;18.99;63.42
77161;BME280;66135;0.000;0.000;2023-04-24T03:17:43;99918.84;;;18.99;63.69
77161;BME280;66135;0.000;0.000;2023-04-24T03:20:09;99906.53;;;18.96;63.35
77161;BME280;66135;0.000;0.000;2023-04-24T03:22:35;99915.50;;;18.97;63.40
77161;BME280;66135;0.000;0.000;2023-04-24T03:25:01;99914.03;;;18.94;63.63
77161;BME280;66135;0.000;0.000;2023-04-24T03:27:26;99917.59;;;18.95;63.65
77161;BME280;66135;0.000;0.000;2023-04-24T03:29:52;99909.47;;;18.95;63.39
77161;BME280;66135;0.000;0.000;2023-04-24T03:32:21;99914.03;;;18.94;63.42
77161;BME280;66135;0.000;0.000;2023-04-24T03:34:48;99926.78;;;18.94;63.52
77161;BME280;66135;0.000;0.000;2023-04-24T03:37:14;99916.13;;;18.92;63.58
77161;BME280;66135;0.000;0.000;2023-04-24T03:39:39;99922.19;;;18.94;63.39
77161;BME280;66135;0.000;0.000;2023-04-24T03:42:04;99919.88;;;18.91;63.35
77161;BME280;66135;0.000;0.000;2023-04-24T03:44:30;99926.34;;;18.90;63.52
77161;BME280;66135;0.000;0.000;2023-04-24T03:46:55;99922.59;;;18.91;63.42
77161;BME280;66135;0.000;0.000;2023-04-24T03:49:22;99919.88;;;18.91;63.41
77161;BME280;66135;0.000;0.000;2023-04-24T03:51:48;99917.34;;;18.90;63.47
77161;BME280;66135;0.000;0.000;2023-04-24T03:54:13;99922.97;;;18.88;63.49
77161;BME280;66135;0.000;0.000;2023-04-24T03:56:39;99909.22;;;18.90;63.56
77161;BME280;66135;0.000;0.000;2023-04-24T03:59:04;99929.25;;;18.89;63.55
77161;BME280;66135;0.000;0.000;2023-04-24T04:01:30;99916.31;;;18.91;63.53
77161;BME280;66135;0.000;0.000;2023-04-24T04:03:56;99918.59;;;18.87;63.30
77161;BME280;66135;0.000;0.000;2023-04-24T04:06:21;99918.81;;;18.86;63.37
77161;BME280;66135;0.000;0.000;2023-04-24T04:08:47;99923.41;;;18.85;63.50
77161;BME280;66135;0.000;0.000;2023-04-24T04:11:12;99921.53;;;18.86;63.44
77161;BME280;66135;0.000;0.000;2023-04-24T04:13:38;99926.09;;;18.85;63.33
77161;BME280;66135;0.000;0.000;2023-04-24T04:16:04;99928.19;;;18.83;63.38
77161;BME280;66135;0.000;0.000;2023-04-24T04:18:29;99923.81;;;18.82;63.24
77161;BME280;66135;0.000;0.000;2023-04-24T04:20:55;99922.97;;;18.82;63.50
77161;BME280;66135;0.000;0.000;2023-04-24T04:23:22;99916.69;;;18.81;63.26
77161;BME280;66135;0.000;0.000;2023-04-24T04:25:47;99927.34;;;18.83;63.38
77161;BME280;66135;0.000;0.000;2023-04-24T04:28:13;99923.16;;;18.80;63.36
77161;BME280;66135;0.000;0.000;2023-04-24T04:30:38;99922.13;;;18.81;63.45
77161;BME280;66135;0.000;0.000;2023-04-24T04:33:03;99927.53;;;18.81;63.40
77161;BME280;66135;0.000;0.000;2023-04-24T04:35:29;99931.31;;;18.80;63.13
77161;BME280;66135;0.000;0.000;2023-04-24T04:37:54;99930.25;;;18.81;63.30
77161;BME280;66135;0.000;0.000;2023-04-24T04:40:24;99925.66;;;18.82;63.45
77161;BME280;66135;0.000;0.000;2023-04-24T04:42:57;99936.53;;;18.82;63.29
77161;BME280;66135;0.000;0.000;2023-04-24T04:45:23;99930.47;;;18.80;63.41
77161;BME280;66135;0.000;0.000;2023-04-24T04:47:49;99928.59;;;18.80;63.29
77161;BME280;66135;0.000;0.000;2023-04-24T04:50:14;99923.38;;;18.79;63.38
77161;BME280;66135;0.000;0.000;2023-04-24T04:52:41;99936.09;;;18.78;63.29
77161;BME280;66135;0.000;0.000;2023-04-24T04:55:07;99934.44;;;18.77;63.40
77161;BME280;66135;0.000;0.000;2023-04-24T04:57:32;99934.44;;;18.77;63.54
77161;BME280;66135;0.000;0.000;2023-04-24T04:59:58;99931.72;;;18.77;63.44
77161;BME280;66135;0.000;0.000;2023-04-24T05:02:23;99928.38;;;18.75;63.63
77161;BME280;66135;0.000;0.000;2023-04-24T05:04:49;99941.53;;;18.78;63.37
77161;BME280;66135;0.000;0.000;2023-04-24T05:07:14;99935.25;;;18.78;63.58
77161;BME280;66135;0.000;0.000;2023-04-24T05:09:39;99949.88;;;18.77;63.63
77161;BME280;66135;0.000;0.000;2023-04-24T05:12:05;99938.16;;;18.76;63.53
77161;BME280;66135;0.000;0.000;2023-04-24T05:14:35;99937.31;;;18.76;63.63
77161;BME280;66135;0.000;0.000;2023-04-24T05:17:00;99935.00;;;18.73;63.62
77161;BME280;66135;0.000;0.000;2023-04-24T05:19:26;99932.50;;;18.71;63.70
77161;BME280;66135;0.000;0.000;2023-04-24T05:21:51;99957.78;;;18.72;63.76
77161;BME280;66135;0.000;0.000;2023-04-24T05:24:17;99949.84;;;18.70;63.79
77161;BME280;66135;0.000;0.000;2023-04-24T05:26:42;99969.84;;;18.69;63.79
77161;BME280;66135;0.000;0.000;2023-04-24T05:29:07;99965.25;;;18.70;63.79
77161;BME280;66135;0.000;0.000;2023-04-24T05:31:33;99969.03;;;18.69;63.91
77161;BME280;66135;0.000;0.000;2023-04-24T05:33:58;99964.41;;;18.69;63.52
77161;BME280;66135;0.000;0.000;2023-04-24T05:36:24;99975.28;;;18.69;63.61
77161;BME280;66135;0.000;0.000;2023-04-24T05:38:49;99984.25;;;18.70;63.67
77161;BME280;66135;0.000;0.000;2023-04-24T05:41:15;99983.59;;;18.68;63.24
77161;BME280;66135;0.000;0.000;2023-04-24T05:43:40;99989.03;;;18.68;63.33
77161;BME280;66135;0.000;0.000;2023-04-24T05:46:06;99985.31;;;18.69;63.52
77161;BME280;66135;0.000;0.000;2023-04-24T05:48:31;99990.72;;;18.69;63.58
77161;BME280;66135;0.000;0.000;2023-04-24T05:50:57;99985.91;;;18.71;63.73
77161;BME280;66135;0.000;0.000;2023-04-24T05:53:22;99987.81;;;18.70;63.85
77161;BME280;66135;0.000;0.000;2023-04-24T05:55:47;99985.31;;;18.69;63.56
77161;BME280;66135;0.000;0.000;2023-04-24T05:58:13;99980.06;;;18.67;63.64
77161;BME280;66135;0.000;0.000;2023-04-24T06:00:38;99979.44;;;18.65;63.66
77161;BME280;66135;0.000;0.000;2023-04-24T06:03:07;99994.44;;;18.61;63.69
77161;BME280;66135;0.000;0.000;2023-04-24T06:05:33;99996.09;;;18.62;63.65
77161;BME280;66135;0.000;0.000;2023-04-24T06:07:58;100001.91;;;18.59;63.86
77161;BME280;66135;0.000;0.000;2023-04-24T06:10:24;99995.44;;;18.60;63.65
77161;BME280;66135;0.000;0.000;2023-04-24T06:12:49;100011.34;;;18.63;63.61
77161;BME280;66135;0.000;0.000;2023-04-24T06:15:15;100015.28;;;18.61;63.40
77161;BME280;66135;0.000;0.000;2023-04-24T06:17:40;100023.63;;;18.59;63.48
77161;BME280;66135;0.000;0.000;2023-04-24T06:20:06;100025.69;;;18.57;63.64
77161;BME280;66135;0.000;0.000;2023-04-24T06:22:33;100036.53;;;18.57;63.50
77161;BME280;66135;0.000;0.000;2023-04-24T06:24:59;100045.72;;;18.56;63.69
77161;BME280;66135;0.000;0.000;2023-04-24T06:27:24;100039.44;;;18.56;63.72
77161;BME280;66135;0.000;0.000;2023-04-24T06:29:50;100059.94;;;18.58;63.73
77161;BME280;66135;0.000;0.000;2023-04-24T06:32:23;100051.97;;;18.57;63.42
77161;BME280;66135;0.000;0.000;2023-04-24T06:34:49;100050.50;;;18.54;63.64
77161;BME280;66135;0.000;0.000;2023-04-24T06:37:14;100056.94;;;18.53;63.56
77161;BME280;66135;0.000;0.000;2023-04-24T06:39:41;100069.88;;;18.51;63.49
77161;BME280;66135;0.000;0.000;2023-04-24T06:42:06;100070.69;;;18.52;63.54
77161;BME280;66135;0.000;0.000;2023-04-24T06:44:34;100083.44;;;18.51;63.51
77161;BME280;66135;0.000;0.000;2023-04-24T06:47:10;100081.97;;;18.49;63.24
77161;BME280;66135;0.000;0.000;2023-04-24T06:49:36;100109.06;;;18.49;63.52
77161;BME280;66135;0.000;0.000;2023-04-24T06:52:01;100103.84;;;18.47;63.65
77161;BME280;66135;0.000;0.000;2023-04-24T06:54:27;100108.22;;;18.48;63.53
77161;BME280;66135;0.000;0.000;2023-04-24T06:56:52;100117.41;;;18.47;63.49
77161;BME280;66135;0.000;0.000;2023-04-24T06:59:18;100129.09;;;18.48;63.21
77161;BME280;66135;0.000;0.000;2023-04-24T07:01:43;100134.53;;;18.48;63.50
77161;BME280;66135;0.000;0.000;2023-04-24T07:04:08;100142.28;;;18.51;63.79
77161;BME280;66135;0.000;0.000;2023-04-24T07:06:35;100141.03;;;18.53;63.51
77161;BME280;66135;0.000;0.000;2023-04-24T07:09:01;100152.53;;;18.55;63.52
77161;BME280;66135;0.000;0.000;2023-04-24T07:11:26;100166.75;;;18.57;63.54
77161;BME280;66135;0.000;0.000;2023-04-24T07:13:54;100167.78;;;18.56;63.82
77161;BME280;66135;0.000;0.000;2023-04-24T07:16:20;100184.72;;;18.58;63.78
77161;BME280;66135;0.000;0.000;2023-04-24T07:18:45;100194.72;;;18.58;63.72
77161;BME280;66135;0.000;0.000;2023-04-24T07:21:11;100194.06;;;18.56;63.69
77161;BME280;66135;0.000;0.000;2023-04-24T07:23:36;100197.63;;;18.56;63.86
77161;BME280;66135;0.000;0.000;2023-04-24T07:26:02;100204.06;;;18.55;63.73
77161;BME280;66135;0.000;0.000;2023-04-24T07:28:27;100211.38;;;18.55;63.98
77161;BME280;66135;0.000;0.000;2023-04-24T07:30:59;100219.53;;;18.55;64.25
77161;BME280;66135;0.000;0.000;2023-04-24T07:33:25;100223.25;;;18.54;63.89
77161;BME280;66135;0.000;0.000;2023-04-24T07:35:51;100236.81;;;18.54;63.89
77161;BME280;66135;0.000;0.000;2023-04-24T07:38:17;100244.94;;;18.54;64.03
77161;BME280;66135;0.000;0.000;2023-04-24T07:40:53;100244.09;;;18.53;63.90
77161;BME280;66135;0.000;0.000;2023-04-24T07:43:20;100260.38;;;18.53;64.09
77161;BME280;66135;0.000;0.000;2023-04-24T07:45:45;100260.38;;;18.53;63.77
77161;BME280;66135;0.000;0.000;2023-04-24T07:48:10;100276.47;;;18.55;63.87
77161;BME280;66135;0.000;0.000;2023-04-24T07:50:36;100285.63;;;18.54;63.89
77161;BME280;66135;0.000;0.000;2023-04-24T07:53:02;100298.53;;;18.52;64.04
77161;BME280;66135;0.000;0.000;2023-04-24T07:55:27;100307.34;;;18.54;63.88
77161;BME280;66135;0.000;0.000;2023-04-24T07:57:52;100309.84;;;18.55;64.04
77161;BME280;66135;0.000;0.000;2023-04-24T08:00:18;100315.88;;;18.51;63.39
77161;BME280;66135;0.000;0.000;2023-04-24T08:02:43;100318.13;;;18.47;63.28
77161;BME280;66135;0.000;0.000;2023-04-24T08:05:09;100322.88;;;18.45;63.12
77161;BME280;66135;0.000;0.000;2023-04-24T08:07:35;100325.59;;;18.45;62.89
77161;BME280;66135;0.000;0.000;2023-04-24T08:10:01;100330.16;;;18.45;62.81
77161;BME280;66135;0.000;0.000;2023-04-24T08:12:28;100340.19;;;18.44;63.08
77161;BME280;66135;0.000;0.000;2023-04-24T08:14:53;100341.22;;;18.43;63.14
77161;BME280;66135;0.000;0.000;2023-04-24T08:17:19;100347.28;;;18.45;63.17
77161;BME280;66135;0.000;0.000;2023-04-24T08:19:44;100352.25;;;18.42;62.89
77161;BME280;66135;0.000;0.000;2023-04-24T08:22:20;100352.25;;;18.42;63.02
77161;BME280;66135;0.000;0.000;2023-04-24T08:24:46;100366.47;;;18.44;62.99
77161;BME280;66135;0.000;0.000;2023-04-24T08:27:11;100371.03;;;18.43;62.97
77161;BME280;66135;0.000;0.000;2023-04-24T08:29:37;100383.78;;;18.43;63.25
77161;BME280;66135;0.000;0.000;2023-04-24T08:32:02;100393.78;;;18.42;63.51
77161;BME280;66135;0.000;0.000;2023-04-24T08:34:28;100386.31;;;18.44;63.32
77161;BME280;66135;0.000;0.000;2023-04-24T08:36:53;100379.19;;;18.43;63.28
77161;BME280;66135;0.000;0.000;2023-04-24T08:39:19;100390.88;;;18.44;63.78
77161;BME280;66135;0.000;0.000;2023-04-24T08:41:45;100396.09;;;18.45;63.91
77161;BME280;66135;0.000;0.000;2023-04-24T08:44:11;100385.25;;;18.45;64.32
77161;BME280;66135;0.000;0.000;2023-04-24T08:46:39;100401.53;;;18.45;64.29
77161;BME280;66135;0.000;0.000;2023-04-24T08:49:05;100399.88;;;18.44;64.12
77161;BME280;66135;0.000;0.000;2023-04-24T08:51:31;100415.09;;;18.45;64.00
77161;BME280;66135;0.000;0.000;2023-04-24T08:53:57;100420.53;;;18.45;64.61
77161;BME280;66135;0.000;0.000;2023-04-24T08:56:23;100432.41;;;18.44;64.97
77161;BME280;66135;0.000;0.000;2023-04-24T08:58:53;100422.19;;;18.46;65.35
77161;BME280;66135;0.000;0.000;2023-04-24T09:01:19;100432.88;;;18.48;65.27
77161;BME280;66135;0.000;0.000;2023-04-24T09:03:54;100438.31;;;18.48;65.04
77161;BME280;66135;0.000;0.000;2023-04-24T09:06:21;100445.31;;;18.42;65.35
77161;BME280;66135;0.000;0.000;2023-04-24T09:08:48;100445.50;;;18.41;65.06
77161;BME280;66135;0.000;0.000;2023-04-24T09:11:15;100451.44;;;18.36;64.77
77161;BME280;66135;0.000;0.000;2023-04-24T09:13:41;100455.19;;;18.35;64.56
77161;BME280;66135;0.000;0.000;2023-04-24T09:16:06;100467.03;;;18.34;64.64
77161;BME280;66135;0.000;0.000;2023-04-24T09:18:32;100467.22;;;18.33;64.59
77161;BME280;66135;0.000;0.000;2023-04-24T09:21:07;100463.69;;;18.32;64.38
77161;BME280;66135;0.000;0.000;2023-04-24T09:23:33;100472.66;;;18.33;64.73
77161;BME280;66135;0.000;0.000;2023-04-24T09:26:01;100488.56;;;18.36;64.30
77161;BME280;66135;0.000;0.000;2023-04-24T09:28:30;100491.91;;;18.38;64.41
77161;BME280;66135;0.000;0.000;2023-04-24T09:31:11;100492.59;;;18.40;64.26
77161;BME280;66135;0.000;0.000;2023-04-24T09:33:37;100507.88;;;18.41;64.33
77161;BME280;66135;0.000;0.000;2023-04-24T09:36:02;100497.19;;;18.39;64.26
77161;BME280;66135;0.000;0.000;2023-04-24T09:38:35;100515.16;;;18.40;64.40
77161;BME280;66135;0.000;0.000;2023-04-24T09:41:06;100503.44;;;18.40;64.26
77161;BME280;66135;0.000;0.000;2023-04-24T09:43:32;100508.84;;;18.40;64.41
77161;BME280;66135;0.000;0.000;2023-04-24T09:45:59;100514.47;;;18.38;64.49
77161;BME280;66135;0.000;0.000;2023-04-24T09:48:37;100527.16;;;18.38;64.54
77161;BME280;66135;0.000;0.000;2023-04-24T09:51:05;100526.34;;;18.37;64.54
77161;BME280;66135;0.000;0.000;2023-04-24T09:53:39;100535.31;;;18.38;64.26
77161;BME280;66135;0.000;0.000;2023-04-24T09:56:09;100539.91;;;18.37;64.62
77161;BME280;66135;0.000;0.000;2023-04-24T09:58:36;100548.72;;;18.39;64.64
77161;BME280;66135;0.000;0.000;2023-04-24T10:01:01;100546.00;;;18.39;64.62
77161;BME280;66135;0.000;0.000;2023-04-24T10:03:30;100548.72;;;18.39;64.80
77161;BME280;66135;0.000;0.000;2023-04-24T10:06:05;100554.97;;;18.40;64.60
77161;BME280;66135;0.000;0.000;2023-04-24T10:08:36;100547.31;;;18.43;64.80
77161;BME280;66135;0.000;0.000;2023-04-24T10:11:02;100555.09;;;18.46;64.55
77161;BME280;66135;0.000;0.000;2023-04-24T10:13:28;100556.78;;;18.47;64.41
77161;BME280;66135;0.000;0.000;2023-04-24T10:15:54;100559.69;;;18.46;64.60
77161;BME280;66135;0.000;0.000;2023-04-24T10:18:20;100567.69;;;18.39;64.74
77161;BME280;66135;0.000;0.000;2023-04-24T10:20:46;100566.00;;;18.38;64.65
77161;BME280;66135;0.000;0.000;2023-04-24T10:23:12;100562.28;;;18.39;65.12
77161;BME280;66135;0.000;0.000;2023-04-24T10:25:38;100568.53;;;18.40;64.89
77161;BME280;66135;0.000;0.000;2023-04-24T10:28:04;100567.53;;;18.41;64.87
77161;BME280;66135;0.000;0.000;2023-04-24T10:30:34;100566.69;;;18.40;65.13
77161;BME280;66135;0.000;0.000;2023-04-24T10:33:04;100570.41;;;18.39;65.16
77161;BME280;66135;0.000;0.000;2023-04-24T10:35:42;100582.97;;;18.40;64.87
77161;BME280;66135;0.000;0.000;2023-04-24T10:38:12;100579.56;;;18.38;65.33
77161;BME280;66135;0.000;0.000;2023-04-24T10:40:38;100577.88;;;18.37;65.33
77161;BME280;66135;0.000;0.000;2023-04-24T10:43:05;100587.03;;;18.36;65.29
77161;BME280;66135;0.000;0.000;2023-04-24T10:45:33;100589.06;;;18.34;65.29
77161;BME280;66135;0.000;0.000;2023-04-24T10:48:03;100590.78;;;18.35;65.23
77161;BME280;66135;0.000;0.000;2023-04-24T10:50:41;100603.66;;;18.33;65.57
77161;BME280;66135;0.000;0.000;2023-04-24T10:53:14;100599.44;;;18.31;65.56
77161;BME280;66135;0.000;0.000;2023-04-24T10:55:51;100601.16;;;18.32;65.18
77161;BME280;66135;0.000;0.000;2023-04-24T10:58:35;100603.47;;;18.35;65.22
77161;BME280;66135;0.000;0.000;2023-04-24T11:01:03;100618.25;;;18.32;65.42
77161;BME280;66135;0.000;0.000;2023-04-24T11:03:30;100613.66;;;18.33;65.32
77161;BME280;66135;0.000;0.000;2023-04-24T11:06:05;100610.28;;;18.31;65.07
77161;BME280;66135;0.000;0.000;2023-04-24T11:08:37;100631.16;;;18.30;65.35
77161;BME280;66135;0.000;0.000;2023-04-24T11:11:12;100635.72;;;18.30;64.85
